createdAt,value
2018-06-30T00:00:33.797Z,72.70
2018-06-30T00:03:02.537Z,72.80
2018-06-30T00:05:31.363Z,72.90
2018-06-30T00:07:59.564Z,73.60
2018-06-30T00:10:29.266Z,73.00
2018-06-30T00:12:58.284Z,73.10
2018-06-30T00:15:26.739Z,72.70
2018-06-30T00:17:55.235Z,72.60
2018-06-30T00:20:23.717Z,72.40
2018-06-30T00:22:51.954Z,72.40
2018-06-30T00:25:20.136Z,72.50
2018-06-30T00:27:48.307Z,72.30
2018-06-30T00:30:16.516Z,73.20
2018-06-30T00:32:44.753Z,72.50
2018-06-30T00:35:13.074Z,72.30
2018-06-30T00:37:41.858Z,72.40
2018-06-30T00:40:10.067Z,72.20
2018-06-30T00:42:38.269Z,72.40
2018-06-30T00:45:06.537Z,72.40
2018-06-30T00:47:34.807Z,72.70
2018-06-30T00:50:03.087Z,72.80
2018-06-30T00:52:31.274Z,72.90
2018-06-30T00:54:59.407Z,72.80
2018-06-30T00:57:27.705Z,73.00
2018-06-30T00:59:55.861Z,73.20
2018-06-30T01:02:24.073Z,73.50
2018-06-30T01:04:52.449Z,73.80
2018-06-30T01:07:20.578Z,73.90
2018-06-30T01:09:48.869Z,73.80
2018-06-30T01:12:17.295Z,73.90
2018-06-30T01:14:46.057Z,74.10
2018-06-30T01:17:14.869Z,74.30
2018-06-30T01:19:42.977Z,74.50
2018-06-30T01:22:11.231Z,74.60
2018-06-30T01:24:39.437Z,74.80
2018-06-30T01:27:07.769Z,75.00
2018-06-30T01:32:04.162Z,75.30
2018-06-30T01:34:32.406Z,75.30
2018-06-30T01:37:00.971Z,75.60
2018-06-30T01:39:29.862Z,75.80
2018-06-30T01:41:58.075Z,75.80
2018-06-30T01:44:26.537Z,75.80
2018-06-30T01:46:55.110Z,76.00
2018-06-30T01:49:23.347Z,76.00
2018-06-30T01:56:48.273Z,76.40
2018-06-30T01:59:16.819Z,76.50
2018-06-30T02:01:45.117Z,76.40
2018-06-30T02:04:14.703Z,77.00
2018-06-30T02:06:42.819Z,76.30
2018-06-30T02:09:11.555Z,76.30
2018-06-30T02:11:41.302Z,76.40
2018-06-30T02:14:09.968Z,76.50
2018-06-30T02:16:38.357Z,76.30
2018-06-30T02:19:07.982Z,76.40
2018-06-30T02:21:36.267Z,76.40
2018-06-30T02:24:04.507Z,76.40
2018-06-30T02:26:32.831Z,76.30
2018-06-30T02:29:01.089Z,75.90
2018-06-30T02:31:29.571Z,76.00
2018-06-30T02:33:59.800Z,76.00
2018-06-30T02:36:30.525Z,76.00
2018-06-30T02:38:58.899Z,76.10
2018-06-30T02:41:27.444Z,76.20
2018-06-30T02:43:55.842Z,76.30
2018-06-30T02:46:24.310Z,76.50
2018-06-30T02:48:52.526Z,76.20
2018-06-30T02:51:20.763Z,76.20
2018-06-30T02:53:48.908Z,76.20
2018-06-30T02:56:17.326Z,76.10
2018-06-30T02:58:46.570Z,76.20
2018-06-30T03:01:16.236Z,75.80
2018-06-30T03:08:34.597Z,75.30
2018-06-30T03:11:03.327Z,75.20
2018-06-30T03:13:31.511Z,75.10
2018-06-30T03:16:01.544Z,75.00
2018-06-30T03:18:29.926Z,75.10
2018-06-30T03:20:58.572Z,75.10
2018-06-30T03:23:26.814Z,75.00
2018-06-30T03:25:56.244Z,75.10
2018-06-30T03:28:24.610Z,75.30
2018-06-30T03:30:52.829Z,75.20
2018-06-30T03:33:20.978Z,75.10
2018-06-30T03:35:49.152Z,74.90
2018-06-30T03:38:18.347Z,74.80
2018-06-30T03:40:46.556Z,74.70
2018-06-30T03:43:16.009Z,74.40
2018-06-30T03:45:44.148Z,74.50
2018-06-30T03:48:12.502Z,74.40
2018-06-30T03:50:40.810Z,74.00
2018-06-30T03:53:08.948Z,74.20
2018-06-30T03:55:39.448Z,73.90
2018-06-30T03:58:08.934Z,74.00
2018-06-30T04:00:38.994Z,73.90
2018-06-30T04:03:07.706Z,73.70
2018-06-30T04:05:36.924Z,73.60
2018-06-30T04:08:05.124Z,73.10
2018-06-30T04:10:33.888Z,73.00
2018-06-30T04:13:02.942Z,72.90
2018-06-30T04:15:31.104Z,73.00
2018-06-30T04:17:59.234Z,72.90
2018-06-30T04:20:27.622Z,72.80
2018-06-30T04:22:57.380Z,72.60
2018-06-30T04:25:25.585Z,72.20
2018-06-30T04:27:53.913Z,72.10
2018-06-30T04:30:28.838Z,71.80
2018-06-30T04:32:57.247Z,71.20
2018-06-30T04:35:25.899Z,71.00
2018-06-30T04:37:54.116Z,71.10
2018-06-30T04:40:22.316Z,70.80
2018-06-30T04:42:50.633Z,70.60
2018-06-30T04:47:48.845Z,70.10
2018-06-30T04:50:19.072Z,69.70
2018-06-30T04:52:47.348Z,69.50
2018-06-30T04:55:15.489Z,66.50
2018-06-30T04:57:43.741Z,62.20
2018-06-30T05:00:12.474Z,57.50
2018-06-30T05:02:41.757Z,52.10
2018-06-30T05:05:09.929Z,49.70
2018-06-30T05:07:38.400Z,46.90
2018-06-30T05:10:06.598Z,44.10
2018-06-30T05:12:36.523Z,42.40
2018-06-30T05:15:05.813Z,41.40
2018-06-30T05:17:34.644Z,41.50
2018-06-30T05:20:02.755Z,41.60
2018-06-30T05:22:32.263Z,41.10
2018-06-30T05:25:00.686Z,40.40
2018-06-30T05:29:58.368Z,40.40
2018-06-30T05:32:26.524Z,41.00
2018-06-30T05:34:54.774Z,41.30
2018-06-30T05:37:22.906Z,39.90
2018-06-30T05:39:51.191Z,39.50
2018-06-30T05:42:19.385Z,39.50
2018-06-30T05:44:47.727Z,39.70
2018-06-30T05:47:16.521Z,40.70
2018-06-30T05:52:12.781Z,41.50
2018-06-30T05:54:41.057Z,40.80
2018-06-30T05:57:09.839Z,40.40
2018-06-30T05:59:38.723Z,39.30
2018-06-30T06:02:08.250Z,38.20
2018-06-30T06:04:36.401Z,38.20
2018-06-30T06:07:04.749Z,37.60
2018-06-30T06:09:32.942Z,38.10
2018-06-30T06:12:01.081Z,38.20
2018-06-30T06:14:29.315Z,38.40
2018-06-30T06:16:57.453Z,37.90
2018-06-30T06:19:26.053Z,38.60
2018-06-30T06:21:55.605Z,38.10
2018-06-30T06:24:23.927Z,39.20
2018-06-30T06:29:21.249Z,39.40
2018-06-30T06:31:49.397Z,38.10
2018-06-30T06:34:17.537Z,38.50
2018-06-30T06:36:45.687Z,38.10
2018-06-30T06:39:13.812Z,38.10
2018-06-30T06:41:42.043Z,38.20
2018-06-30T06:44:10.215Z,37.30
2018-06-30T06:46:38.787Z,37.90
2018-06-30T06:49:07.723Z,38.60
2018-06-30T06:51:35.907Z,37.40
2018-06-30T06:54:04.473Z,38.20
2018-06-30T06:56:32.626Z,38.10
2018-06-30T06:59:00.766Z,39.10
2018-06-30T07:01:29.672Z,39.30
2018-06-30T07:03:57.887Z,39.70
2018-06-30T07:06:26.102Z,38.90
2018-06-30T07:08:56.931Z,37.60
2018-06-30T07:11:25.920Z,37.60
2018-06-30T07:13:54.162Z,35.80
2018-06-30T07:16:22.583Z,35.80
2018-06-30T07:18:51.956Z,35.20
2018-06-30T07:21:20.086Z,33.20
2018-06-30T07:23:48.206Z,33.50
2018-06-30T07:26:16.542Z,33.40
2018-06-30T07:28:44.834Z,33.60
2018-06-30T07:31:13.022Z,33.40
2018-06-30T07:33:41.235Z,32.80
2018-06-30T07:36:10.568Z,33.20
2018-06-30T07:38:38.672Z,32.60
2018-06-30T07:41:06.804Z,33.40
2018-06-30T07:46:03.588Z,33.10
2018-06-30T07:48:33.087Z,33.30
2018-06-30T07:53:29.232Z,34.10
2018-06-30T07:58:25.388Z,32.60
2018-06-30T08:00:53.710Z,32.60
2018-06-30T08:03:21.918Z,32.50
2018-06-30T08:05:51.175Z,32.60
2018-06-30T08:08:20.146Z,33.10
2018-06-30T08:10:48.648Z,34.00
2018-06-30T08:13:17.384Z,33.40
2018-06-30T08:15:45.718Z,34.10
2018-06-30T08:18:14.263Z,34.60
2018-06-30T08:20:42.420Z,35.60
2018-06-30T08:23:10.675Z,35.70
2018-06-30T08:25:38.820Z,35.10
2018-06-30T08:28:07.119Z,35.60
2018-06-30T08:30:35.349Z,35.90
2018-06-30T08:33:03.653Z,36.40
2018-06-30T08:35:31.801Z,37.10
2018-06-30T08:37:59.944Z,37.20
2018-06-30T08:40:28.119Z,37.50
2018-06-30T08:42:57.425Z,37.70
2018-06-30T08:45:25.881Z,37.70
2018-06-30T08:50:22.333Z,37.80
2018-06-30T08:52:50.904Z,37.30
2018-06-30T08:55:19.137Z,36.80
2018-06-30T08:57:47.523Z,36.80
2018-06-30T09:00:16.941Z,36.70
2018-06-30T09:02:45.718Z,35.40
2018-06-30T09:05:15.227Z,35.40
2018-06-30T09:07:43.776Z,36.00
2018-06-30T09:12:40.575Z,37.20
2018-06-30T09:15:08.761Z,37.10
2018-06-30T09:17:36.981Z,37.10
2018-06-30T09:20:05.224Z,37.60
2018-06-30T09:22:33.453Z,38.20
2018-06-30T09:25:03.115Z,38.50
2018-06-30T09:27:32.881Z,38.80
2018-06-30T09:30:01.257Z,38.60
2018-06-30T09:32:29.458Z,38.70
2018-06-30T09:34:57.607Z,37.40
2018-06-30T09:37:25.952Z,36.70
2018-06-30T09:39:54.318Z,36.10
2018-06-30T09:42:22.612Z,36.20
2018-06-30T09:44:50.939Z,36.00
2018-06-30T09:47:20.108Z,35.90
2018-06-30T09:49:48.313Z,36.60
2018-06-30T09:52:16.457Z,37.10
2018-06-30T09:54:45.928Z,37.10
2018-06-30T09:57:14.244Z,37.60
2018-06-30T09:59:42.490Z,37.20
2018-06-30T10:02:10.631Z,37.30
2018-06-30T10:04:38.801Z,37.40
2018-06-30T10:07:07.455Z,36.90
2018-06-30T10:09:35.631Z,36.60
2018-06-30T10:12:03.741Z,36.20
2018-06-30T10:14:31.922Z,36.40
2018-06-30T10:17:00.316Z,36.20
2018-06-30T10:19:28.571Z,36.40
2018-06-30T10:21:56.657Z,35.80
2018-06-30T10:24:24.818Z,36.80
2018-06-30T10:26:54.291Z,36.70
2018-06-30T10:29:25.075Z,36.30
2018-06-30T10:31:53.393Z,35.70
2018-06-30T10:34:21.877Z,36.20
2018-06-30T10:36:51.247Z,36.60
2018-06-30T10:39:20.163Z,35.80
2018-06-30T10:41:48.331Z,36.30
2018-06-30T10:44:16.847Z,36.90
2018-06-30T10:46:45.470Z,36.10
2018-06-30T10:49:13.767Z,35.70
2018-06-30T10:56:39.733Z,35.40
2018-06-30T10:59:08.324Z,36.00
2018-06-30T11:01:36.602Z,35.50
2018-06-30T11:04:04.786Z,35.90
2018-06-30T11:06:33.547Z,35.20
2018-06-30T11:09:01.737Z,35.20
2018-06-30T11:13:58.476Z,34.70
2018-06-30T11:16:26.615Z,33.50
2018-06-30T11:18:54.737Z,33.30
2018-06-30T11:23:50.818Z,32.80
2018-06-30T11:26:18.992Z,33.20
2018-06-30T11:28:47.566Z,32.70
2018-06-30T11:31:16.102Z,33.20
2018-06-30T11:33:44.244Z,33.00
2018-06-30T11:36:13.544Z,32.50
2018-06-30T11:38:43.276Z,32.40
2018-06-30T11:41:11.636Z,32.40
2018-06-30T11:43:40.248Z,32.30
2018-06-30T11:46:09.555Z,32.70
2018-06-30T11:48:37.688Z,33.30
2018-06-30T11:53:33.878Z,34.10
2018-06-30T11:56:02.044Z,34.20
2018-06-30T12:00:58.712Z,34.80
2018-06-30T12:03:27.040Z,34.30
2018-06-30T12:08:23.215Z,32.90
2018-06-30T12:13:19.947Z,32.60
2018-06-30T12:15:48.109Z,32.90
2018-06-30T12:18:16.497Z,33.30
2018-06-30T12:20:44.806Z,33.70
2018-06-30T12:23:13.198Z,33.90
2018-06-30T12:25:41.419Z,34.20
2018-06-30T12:28:10.037Z,34.50
2018-06-30T12:30:39.562Z,34.20
2018-06-30T12:33:07.780Z,34.50
2018-06-30T12:35:36.074Z,34.70
2018-06-30T12:38:06.909Z,34.50
2018-06-30T12:40:35.269Z,35.20
2018-06-30T12:43:03.578Z,35.40
2018-06-30T12:45:32.113Z,35.50
2018-06-30T12:48:00.695Z,35.70
2018-06-30T12:50:29.515Z,36.20
2018-06-30T12:52:57.709Z,35.30
2018-06-30T12:55:30.233Z,35.40
2018-06-30T12:57:58.633Z,34.90
2018-06-30T13:00:26.805Z,33.80
2018-06-30T13:02:56.257Z,33.90
2018-06-30T13:05:25.033Z,34.30
2018-06-30T13:10:27.815Z,34.00
2018-06-30T13:12:55.955Z,33.40
2018-06-30T13:15:24.137Z,33.30
2018-06-30T13:17:52.691Z,33.60
2018-06-30T13:22:49.382Z,34.10
2018-06-30T13:25:17.619Z,33.80
2018-06-30T13:27:47.083Z,33.70
2018-06-30T13:30:15.270Z,33.90
2018-06-30T13:32:43.416Z,33.90
2018-06-30T13:35:12.411Z,34.00
2018-06-30T13:37:40.898Z,33.40
2018-06-30T13:40:09.069Z,33.40
2018-06-30T13:42:37.293Z,33.60
2018-06-30T13:45:07.002Z,33.30
2018-06-30T13:47:35.554Z,33.50
2018-06-30T13:50:04.661Z,33.60
2018-06-30T13:52:34.085Z,33.70
2018-06-30T13:55:03.416Z,33.70
2018-06-30T13:57:31.702Z,34.20
2018-06-30T13:59:59.926Z,34.20
2018-06-30T14:02:28.577Z,34.60
2018-06-30T14:04:57.281Z,35.10
2018-06-30T14:07:25.495Z,35.30
2018-06-30T14:09:53.783Z,35.40
2018-06-30T14:12:22.846Z,35.80
2018-06-30T14:14:52.041Z,35.90
2018-06-30T14:19:49.577Z,36.80
2018-06-30T14:22:18.006Z,37.20
2018-06-30T14:24:46.371Z,36.90
2018-06-30T14:27:14.489Z,36.60
2018-06-30T14:29:42.616Z,36.10
2018-06-30T14:32:12.048Z,35.70
2018-06-30T14:34:40.894Z,35.20
2018-06-30T14:37:09.561Z,35.20
2018-06-30T14:39:40.397Z,35.30
2018-06-30T14:42:09.227Z,35.90
2018-06-30T14:44:37.373Z,36.00
2018-06-30T14:47:05.530Z,35.70
2018-06-30T14:49:33.743Z,36.60
2018-06-30T14:52:01.890Z,36.80
2018-06-30T14:54:30.094Z,37.20
2018-06-30T14:56:58.457Z,36.90
2018-06-30T14:59:26.644Z,36.00
2018-06-30T15:01:54.922Z,35.40
2018-06-30T15:04:23.753Z,35.00
2018-06-30T15:06:51.937Z,35.10
2018-06-30T15:09:20.109Z,35.20
2018-06-30T15:11:48.268Z,35.50
2018-06-30T15:14:16.439Z,36.10
2018-06-30T15:16:44.785Z,36.70
2018-06-30T15:19:12.955Z,36.80
2018-06-30T15:21:41.199Z,37.00
2018-06-30T15:24:09.997Z,37.20
2018-06-30T15:26:38.263Z,37.20
2018-06-30T15:29:06.572Z,37.10
2018-06-30T15:31:34.810Z,37.00
2018-06-30T15:34:03.103Z,37.40
2018-06-30T15:36:31.294Z,37.90
2018-06-30T15:38:59.571Z,38.50
2018-06-30T15:41:27.741Z,38.50
2018-06-30T15:43:57.246Z,38.00
2018-06-30T15:46:25.437Z,38.20
2018-06-30T15:48:53.646Z,37.80
2018-06-30T15:51:21.808Z,37.50
2018-06-30T15:53:50.714Z,36.30
2018-06-30T15:56:18.902Z,36.50
2018-06-30T15:58:47.335Z,36.30
2018-06-30T16:01:15.572Z,35.30
2018-06-30T16:03:43.838Z,35.60
2018-06-30T16:06:11.994Z,36.00
2018-06-30T16:08:40.164Z,36.30
2018-06-30T16:11:08.474Z,35.90
2018-06-30T16:13:36.908Z,36.20
2018-06-30T16:16:05.628Z,35.90
2018-06-30T16:18:33.803Z,35.80
2018-06-30T16:21:02.130Z,35.50
2018-06-30T16:23:30.386Z,35.50
2018-06-30T16:25:58.640Z,35.60
2018-06-30T16:28:26.820Z,35.70
2018-06-30T16:30:55.017Z,34.70
2018-06-30T16:33:23.456Z,35.30
2018-06-30T16:35:51.600Z,35.30
2018-06-30T16:38:19.873Z,35.10
2018-06-30T16:40:48.226Z,35.50
2018-06-30T16:43:16.419Z,35.80
2018-06-30T16:45:44.543Z,35.70
2018-06-30T16:48:12.734Z,35.90
2018-06-30T16:50:40.948Z,36.10
2018-06-30T16:53:09.993Z,35.90
2018-06-30T16:55:38.251Z,35.80
2018-06-30T16:58:06.564Z,35.20
2018-06-30T17:00:36.130Z,34.20
2018-06-30T17:03:05.205Z,33.80
2018-06-30T17:08:01.580Z,33.50
2018-06-30T17:10:29.863Z,33.60
2018-06-30T17:12:58.072Z,33.80
2018-06-30T17:15:26.558Z,34.20
2018-06-30T17:17:54.814Z,34.30
2018-06-30T17:20:23.809Z,33.80
2018-06-30T17:22:52.021Z,34.10
2018-06-30T17:25:21.248Z,34.60
2018-06-30T17:27:49.654Z,35.20
2018-06-30T17:30:17.881Z,35.50
2018-06-30T17:32:46.027Z,35.70
2018-06-30T17:35:14.224Z,36.10
2018-06-30T17:37:42.374Z,36.60
2018-06-30T17:40:10.594Z,36.90
2018-06-30T17:42:38.758Z,37.00
2018-06-30T17:45:07.389Z,37.50
2018-06-30T17:47:35.634Z,37.10
2018-06-30T17:50:03.829Z,37.00
2018-06-30T17:52:32.042Z,37.10
2018-06-30T17:57:28.214Z,37.00
2018-06-30T17:59:56.419Z,37.30
2018-06-30T18:02:25.269Z,37.30
2018-06-30T18:04:53.723Z,37.50
2018-06-30T18:07:22.217Z,37.60
2018-06-30T18:09:50.624Z,37.60
2018-06-30T18:12:19.124Z,37.10
2018-06-30T18:14:47.533Z,37.00
2018-06-30T18:17:15.790Z,37.50
2018-06-30T18:19:43.952Z,37.80
2018-06-30T18:22:12.107Z,38.30
2018-06-30T18:24:40.443Z,38.70
2018-06-30T18:27:08.764Z,38.80
2018-06-30T18:29:36.957Z,39.00
2018-06-30T18:32:05.144Z,38.80
2018-06-30T18:34:33.361Z,38.50
2018-06-30T18:37:01.602Z,38.40
2018-06-30T18:39:29.756Z,39.30
2018-06-30T18:41:57.894Z,40.50
2018-06-30T18:44:26.101Z,41.00
2018-06-30T18:46:54.442Z,41.50
2018-06-30T18:49:24.993Z,42.00
2018-06-30T18:51:55.832Z,42.40
2018-06-30T18:54:24.171Z,42.70
2018-06-30T18:56:52.302Z,43.00
2018-06-30T18:59:20.623Z,43.30
2018-06-30T19:01:48.803Z,43.50
2018-06-30T19:04:17.046Z,44.00
2018-06-30T19:06:45.183Z,43.40
2018-06-30T19:09:13.360Z,44.00
2018-06-30T19:11:41.651Z,44.30
2018-06-30T19:14:10.027Z,44.40
2018-06-30T19:16:38.267Z,44.50
2018-06-30T19:19:06.682Z,44.90
2018-06-30T19:21:34.955Z,44.90
2018-06-30T19:24:03.175Z,44.90
2018-06-30T19:26:31.453Z,45.20
2018-06-30T19:29:01.021Z,45.30
2018-06-30T19:31:29.276Z,45.30
2018-06-30T19:33:57.454Z,45.40
2018-06-30T19:36:26.018Z,45.50
2018-06-30T19:38:54.175Z,45.70
2018-06-30T19:41:22.384Z,45.60
2018-06-30T19:43:50.633Z,45.60
2018-06-30T19:46:18.800Z,45.70
2018-06-30T19:48:47.773Z,45.70
2018-06-30T19:51:16.097Z,45.70
2018-06-30T19:53:45.979Z,45.70
2018-06-30T19:56:14.157Z,45.80
2018-06-30T19:58:44.603Z,45.90
2018-06-30T20:01:12.844Z,45.70
2018-06-30T20:03:41.518Z,46.00
2018-06-30T20:06:10.447Z,46.10
2018-06-30T20:08:38.650Z,46.10
2018-06-30T20:11:06.944Z,46.50
2018-06-30T20:13:35.199Z,46.50
2018-06-30T20:16:03.478Z,46.70
2018-06-30T20:18:32.097Z,46.70
2018-06-30T20:21:01.992Z,46.60
2018-06-30T20:23:31.219Z,46.70
2018-06-30T20:25:59.557Z,46.80
2018-06-30T20:28:27.747Z,46.60
2018-06-30T20:30:56.604Z,46.90
2018-06-30T20:33:24.801Z,46.10
2018-06-30T20:35:52.953Z,45.50
2018-06-30T20:38:21.164Z,45.60
2018-06-30T20:40:49.364Z,45.70
2018-06-30T20:43:17.603Z,45.70
2018-06-30T20:45:48.273Z,45.50
2018-06-30T20:48:17.086Z,45.60
2018-06-30T20:50:46.903Z,45.80
2018-06-30T20:53:15.078Z,45.90
2018-06-30T20:55:43.357Z,46.10
2018-06-30T20:58:11.643Z,46.30
2018-06-30T21:00:39.828Z,46.60
2018-06-30T21:03:10.553Z,47.00
2018-06-30T21:05:38.837Z,47.20
2018-06-30T21:08:07.221Z,47.60
2018-06-30T21:10:35.536Z,47.90
2018-06-30T21:13:04.668Z,48.50
2018-06-30T21:15:34.110Z,48.80
2018-06-30T21:18:03.557Z,48.60
2018-06-30T21:20:32.323Z,49.50
2018-06-30T21:23:00.846Z,49.60
2018-06-30T21:25:29.192Z,50.30
2018-06-30T21:27:57.513Z,49.80
2018-06-30T21:30:27.279Z,49.80
2018-06-30T21:32:55.447Z,50.10
2018-06-30T21:35:23.821Z,50.40
2018-06-30T21:37:52.225Z,50.60
2018-06-30T21:40:21.224Z,51.40
2018-06-30T21:42:49.391Z,51.20
2018-06-30T21:45:17.576Z,51.50
2018-06-30T21:47:45.790Z,51.70
2018-06-30T21:50:14.026Z,52.00
2018-06-30T21:52:42.886Z,52.20
2018-06-30T21:55:11.080Z,53.00
2018-06-30T21:57:39.288Z,52.70
2018-06-30T22:00:11.091Z,53.20
2018-06-30T22:02:39.267Z,53.50
2018-06-30T22:05:07.592Z,53.90
2018-06-30T22:07:35.814Z,54.10
2018-06-30T22:10:04.678Z,54.30
2018-06-30T22:12:33.366Z,54.60
2018-06-30T22:15:01.559Z,55.00
2018-06-30T22:17:30.023Z,55.20
2018-06-30T22:19:58.228Z,55.50
2018-06-30T22:22:26.428Z,55.80
2018-06-30T22:24:55.264Z,56.20
2018-06-30T22:27:23.571Z,56.30
2018-06-30T22:29:51.818Z,56.50
2018-06-30T22:32:19.995Z,56.90
2018-06-30T22:34:48.250Z,57.00
2018-06-30T22:37:16.658Z,57.30
2018-06-30T22:42:18.538Z,57.50
2018-06-30T22:44:46.716Z,57.60
2018-06-30T22:47:15.018Z,57.40
2018-06-30T22:49:43.119Z,58.30
2018-06-30T22:52:11.380Z,57.90
2018-06-30T22:54:39.621Z,57.80
2018-06-30T22:57:08.718Z,57.90
2018-06-30T22:59:36.929Z,58.10
2018-06-30T23:02:05.218Z,58.10
2018-06-30T23:04:33.387Z,58.50
2018-06-30T23:07:01.604Z,58.50
2018-06-30T23:09:29.883Z,58.70
2018-06-30T23:11:58.057Z,58.70
2018-06-30T23:14:26.265Z,58.90
2018-06-30T23:16:54.401Z,59.00
2018-06-30T23:19:22.684Z,59.00
2018-06-30T23:21:51.137Z,59.10
2018-06-30T23:24:19.345Z,59.30
2018-06-30T23:26:47.614Z,59.30
2018-06-30T23:29:16.329Z,59.40
2018-06-30T23:31:44.675Z,59.70
2018-06-30T23:34:12.972Z,59.70
2018-06-30T23:36:41.160Z,60.00
2018-06-30T23:39:11.245Z,60.00
2018-06-30T23:41:39.667Z,60.00
2018-06-30T23:44:08.599Z,60.10
2018-06-30T23:46:36.746Z,60.30
2018-06-30T23:49:05.516Z,60.50
2018-06-30T23:51:33.776Z,61.00
2018-06-30T23:54:02.682Z,61.00
2018-06-30T23:56:31.025Z,61.50
2018-06-30T23:58:59.233Z,61.90
